Time;durP1;ratioP1;P1;durP2;ratioP2;P2;SDS_P1;SDS_P2;PMS_P1;PMS_P2;Temp;Humidity;BMP_temperature;BMP_pressure;BME280_temperature;BME280_humidity;BME280_pressure;Samples;Min_cycle;Max_cycle;Signal;HPM_P1;HPM_P2
2024/04/08 00:00:18;;;;;;;8.48;1.85;;;;;;;18.48;49.48;101193.88;5412419;26;20337;-47
2024/04/08 00:02:43;;;;;;;8.60;1.83;;;;;;;18.40;49.74;101201.06;5411551;26;20004;-51
2024/04/08 00:05:08;;;;;;;9.23;1.70;;;;;;;18.37;49.83;101195.78;5411939;26;20004;-44
2024/04/08 00:07:34;;;;;;;7.53;1.90;;;;;;;18.34;49.51;101189.69;5411804;26;20032;-45
2024/04/08 00:09:59;;;;;;;10.38;1.90;;;;;;;18.23;50.42;101181.94;5413183;26;20003;-48
2024/04/08 00:12:24;;;;;;;11.50;2.03;;;;;;;18.23;50.07;101185.44;5413329;26;20080;-44
2024/04/08 00:14:49;;;;;;;6.82;1.60;;;;;;;18.19;50.27;101190.75;5412643;26;20003;-46
2024/04/08 00:17:15;;;;;;;8.57;1.90;;;;;;;18.20;50.47;101180.19;5411876;26;19999;-45
2024/04/08 00:19:41;;;;;;;10.27;1.77;;;;;;;18.19;50.52;101182.84;5411765;26;20003;-43
2024/04/08 00:22:06;;;;;;;8.60;1.70;;;;;;;18.28;50.62;101168.66;5412524;26;20003;-46
2024/04/08 00:24:31;;;;;;;8.77;1.98;;;;;;;18.20;50.58;101161.72;5411834;26;20014;-49
2024/04/08 00:26:57;;;;;;;7.35;1.65;;;;;;;18.31;50.38;101160.69;5411619;26;20019;-44
2024/04/08 00:29:22;;;;;;;8.10;1.80;;;;;;;18.39;50.20;101166.75;5411860;26;20342;-47
2024/04/08 00:31:47;;;;;;;9.90;1.80;;;;;;;18.40;50.36;101174.66;5411579;26;20004;-45
2024/04/08 00:34:13;;;;;;;10.65;1.70;;;;;;;18.43;49.93;101171.06;5411332;26;20454;-47
2024/04/08 00:36:39;;;;;;;9.32;2.10;;;;;;;18.44;50.16;101175.47;5410513;26;20423;-48
2024/04/08 00:39:05;;;;;;;12.35;1.98;;;;;;;18.40;49.81;101174.66;5411451;26;20007;-46
2024/04/08 00:41:30;;;;;;;8.52;1.52;;;;;;;18.39;49.51;101169.38;5411207;26;20049;-48
2024/04/08 00:43:56;;;;;;;8.85;2.10;;;;;;;18.41;49.66;101175.53;5415196;26;20131;-45
2024/04/08 00:46:25;;;;;;;7.45;1.83;;;;;;;18.40;49.63;101173.78;5414776;26;19999;-46
2024/04/08 00:48:55;;;;;;;6.78;1.60;;;;;;;18.41;49.73;101167.63;5414346;26;20011;-44
2024/04/08 00:51:20;;;;;;;10.05;1.80;;;;;;;18.36;49.44;101170.28;5415090;26;20564;-46
2024/04/08 00:53:48;;;;;;;8.85;2.15;;;;;;;18.38;49.61;101162.34;5415060;26;20026;-46
2024/04/08 00:56:14;;;;;;;7.85;1.80;;;;;;;18.35;49.69;101168.56;5414289;26;20446;-43
2024/04/08 00:58:40;;;;;;;10.65;1.85;;;;;;;18.35;49.80;101165.06;5414437;26;20015;-47
2024/04/08 01:01:08;;;;;;;9.05;1.63;;;;;;;18.30;49.63;101148.41;5414624;26;20462;-46
2024/04/08 01:03:33;;;;;;;7.45;1.67;;;;;;;18.32;49.80;101162.44;5414224;26;20362;-48
2024/04/08 01:05:59;;;;;;;7.20;1.73;;;;;;;18.36;49.33;101162.38;5414332;26;20015;-44
2024/04/08 01:08:25;;;;;;;9.95;1.90;;;;;;;18.37;49.68;101171.16;5414325;26;20014;-46
2024/04/08 01:10:51;;;;;;;8.95;1.80;;;;;;;18.39;49.47;101166.75;5414207;26;19999;-47
2024/04/08 01:13:16;;;;;;;12.60;2.03;;;;;;;18.34;49.65;101169.47;5415089;26;19996;-45
2024/04/08 01:15:42;;;;;;;10.15;1.90;;;;;;;18.26;49.88;101168.69;5413733;26;20338;-47
2024/04/08 01:18:07;;;;;;;10.55;1.88;;;;;;;18.27;49.99;101164.28;5414413;26;20070;-45
2024/04/08 01:20:33;;;;;;;6.90;1.50;;;;;;;18.31;50.12;101163.34;5413949;26;20039;-44
2024/04/08 01:22:59;;;;;;;8.75;1.92;;;;;;;18.25;49.92;101164.28;5414548;26;20350;-47
2024/04/08 01:25:24;;;;;;;7.85;1.48;;;;;;;18.24;49.94;101158.13;5414394;26;20003;-45
2024/04/08 01:27:50;;;;;;;6.68;1.80;;;;;;;18.23;49.73;101153.78;5414197;26;20011;-46
2024/04/08 01:30:21;;;;;;;8.07;1.70;;;;;;;18.14;50.17;101148.59;5414180;26;20012;-44
2024/04/08 01:32:46;;;;;;;8.48;2.20;;;;;;;18.13;49.81;101140.72;5413625;26;20036;-45
2024/04/08 01:35:11;;;;;;;9.52;1.73;;;;;;;18.12;50.23;101138.94;5413517;26;20342;-47
2024/04/08 01:37:36;;;;;;;7.60;1.48;;;;;;;18.10;50.42;101138.13;5413272;26;20072;-49
2024/04/08 01:40:02;;;;;;;8.05;1.95;;;;;;;18.12;50.49;101134.56;5414413;26;20080;-46
2024/04/08 01:42:27;;;;;;;8.35;1.80;;;;;;;18.11;50.54;101132.81;5414314;26;20017;-45
2024/04/08 01:44:53;;;;;;;9.10;1.83;;;;;;;18.12;50.57;101142.47;5413957;26;19999;-50
2024/04/08 01:47:18;;;;;;;13.73;2.38;;;;;;;18.16;50.55;101135.41;5413728;26;20069;-44
2024/04/08 01:49:43;;;;;;;7.07;1.90;;;;;;;18.15;50.59;101134.53;5413650;26;20003;-45
2024/04/08 01:52:09;;;;;;;7.50;1.73;;;;;;;18.17;50.60;101134.50;5414049;26;19999;-48
2024/04/08 01:54:34;;;;;;;7.38;1.80;;;;;;;18.16;50.59;101124.84;5412973;26;20003;-47
2024/04/08 01:56:59;;;;;;;8.57;1.85;;;;;;;18.10;50.68;101128.44;5413956;26;20000;-49
2024/04/08 01:59:25;;;;;;;9.45;1.80;;;;;;;18.05;50.52;101129.41;5414901;26;19999;-46
2024/04/08 02:01:50;;;;;;;9.43;1.98;;;;;;;17.97;51.56;101118.94;5413681;26;20003;-49
2024/04/08 02:04:15;;;;;;;7.18;1.83;;;;;;;17.95;51.42;101126.00;5413663;26;20670;-46
2024/04/08 02:06:40;;;;;;;6.50;2.58;;;;;;;17.94;51.55;101128.63;5413144;26;20003;-46
2024/04/08 02:09:08;;;;;;;9.77;2.30;;;;;;;17.99;51.61;101125.03;5414254;26;20003;-48
2024/04/08 02:11:33;;;;;;;8.05;2.25;;;;;;;17.97;51.71;101133.91;5414048;26;20007;-47
2024/04/08 02:13:58;;;;;;;7.45;2.15;;;;;;;17.97;51.97;101123.34;5413848;26;20003;-48
2024/04/08 02:16:24;;;;;;;10.60;2.30;;;;;;;17.99;52.20;101126.84;5412773;26;20004;-46
2024/04/08 02:18:50;;;;;;;9.32;2.30;;;;;;;17.93;52.61;101127.75;5413124;26;20003;-46
2024/04/08 02:21:16;;;;;;;7.53;2.20;;;;;;;18.02;53.05;101124.16;5413769;26;20004;-45
2024/04/08 02:23:41;;;;;;;9.38;2.50;;;;;;;17.99;53.46;101134.75;5413552;26;19995;-45
2024/04/08 02:26:07;;;;;;;8.35;2.50;;;;;;;17.91;54.19;101120.78;5413285;26;20026;-49
2024/04/08 02:28:32;;;;;;;8.18;2.35;;;;;;;17.99;54.22;101125.03;5413421;26;20045;-48
2024/04/08 02:31:01;;;;;;;8.57;2.40;;;;;;;18.11;54.16;101124.03;5413824;26;20077;-49
2024/04/08 02:33:27;;;;;;;8.98;2.47;;;;;;;18.13;54.07;101115.19;5413215;26;20003;-50
2024/04/08 02:35:52;;;;;;;8.05;2.33;;;;;;;18.12;54.46;101116.09;5412937;26;20072;-44
2024/04/08 02:38:17;;;;;;;7.60;2.53;;;;;;;18.10;54.71;101103.81;5414061;26;20004;-44
2024/04/08 02:40:43;;;;;;;9.73;2.47;;;;;;;18.03;54.66;101102.16;5413945;26;20000;-45
2024/04/08 02:43:08;;;;;;;8.93;2.35;;;;;;;18.09;54.99;101095.03;5414120;26;20420;-45
2024/04/08 02:45:33;;;;;;;9.13;2.50;;;;;;;18.06;55.37;101092.41;5413240;26;20003;-50
2024/04/08 02:47:59;;;;;;;8.63;2.35;;;;;;;18.16;54.86;101103.75;5413654;26;20018;-47
2024/04/08 02:50:24;;;;;;;11.57;2.38;;;;;;;18.12;54.75;101110.81;5413696;26;20522;-47
2024/04/08 02:52:50;;;;;;;8.65;2.30;;;;;;;18.12;55.04;101107.28;5413597;26;20466;-51
2024/04/08 02:55:15;;;;;;;8.60;2.33;;;;;;;18.11;54.75;101109.06;5413726;26;20438;-45
2024/04/08 02:57:41;;;;;;;10.50;2.20;;;;;;;18.07;55.59;101114.41;5413482;26;20027;-45
2024/04/08 03:00:06;;;;;;;10.55;2.53;;;;;;;18.04;55.84;101109.19;5414318;26;19996;-48
2024/04/08 03:02:32;;;;;;;12.10;2.30;;;;;;;17.96;56.52;101104.00;5414138;26;20461;-47
2024/04/08 03:04:57;;;;;;;10.15;2.20;;;;;;;18.06;56.36;101099.47;5413130;26;20483;-45
2024/04/08 03:07:22;;;;;;;10.52;2.50;;;;;;;18.08;55.93;101092.41;5415756;26;20014;-49
2024/04/08 03:09:52;;;;;;;9.25;2.60;;;;;;;18.07;55.67;101095.94;5414733;26;20088;-46
2024/04/08 03:12:17;;;;;;;8.23;2.25;;;;;;;17.99;56.21;101087.28;5414809;26;20090;-48
2024/04/08 03:14:43;;;;;;;7.07;2.00;;;;;;;17.99;56.33;101085.47;5413613;26;20003;-46
2024/04/08 03:17:08;;;;;;;11.30;2.75;;;;;;;17.98;56.48;101085.53;5413988;26;20007;-45
2024/04/08 03:19:33;;;;;;;8.75;2.22;;;;;;;17.90;57.42;101082.09;5414575;26;19999;-45
2024/04/08 03:21:59;;;;;;;7.20;2.20;;;;;;;17.93;57.46;101087.34;5415228;26;20015;-44
2024/04/08 03:24:26;;;;;;;8.50;2.22;;;;;;;17.93;57.50;101080.28;5414909;26;20007;-45
2024/04/08 03:26:52;;;;;;;9.13;2.20;;;;;;;17.89;57.73;101069.81;5413470;26;20051;-45
2024/04/08 03:29:18;;;;;;;7.85;2.17;;;;;;;17.78;58.00;101073.47;5413589;26;20014;-44
2024/04/08 03:31:43;;;;;;;8.18;2.22;;;;;;;17.85;58.87;101074.25;5411348;26;20018;-44
2024/04/08 03:34:08;;;;;;;10.45;2.45;;;;;;;17.69;59.46;101065.66;5413365;26;20350;-45
2024/04/08 03:36:33;;;;;;;11.55;2.70;;;;;;;17.62;60.50;101061.38;5412365;26;20077;-50
2024/04/08 03:38:59;;;;;;;10.27;2.58;;;;;;;17.49;61.78;101062.38;5413048;26;20003;-44
2024/04/08 03:41:24;;;;;;;8.80;2.50;;;;;;;17.74;61.52;101069.13;5410746;26;20000;-47
2024/04/08 03:43:49;;;;;;;9.75;2.60;;;;;;;17.76;61.41;101062.06;5412022;26;20039;-45
2024/04/08 03:46:15;;;;;;;8.90;3.00;;;;;;;17.82;61.39;101050.56;5412159;26;20007;-44
2024/04/08 03:48:40;;;;;;;8.93;2.58;;;;;;;17.56;62.50;101052.63;5412033;26;19999;-49
2024/04/08 03:51:10;;;;;;;8.07;2.70;;;;;;;17.70;62.40;101048.06;5412692;26;20016;-44
2024/04/08 03:53:35;;;;;;;7.85;2.80;;;;;;;17.70;62.54;101046.31;5412232;26;20454;-44
2024/04/08 03:56:09;;;;;;;7.88;2.95;;;;;;;17.61;63.08;101037.66;5411956;26;19999;-48
2024/04/08 03:58:34;;;;;;;12.80;3.80;;;;;;;17.47;64.49;101037.78;5411729;26;20398;-47
2024/04/08 04:01:00;;;;;;;7.93;3.13;;;;;;;17.61;63.92;101035.03;5411944;26;19999;-46
2024/04/08 04:03:26;;;;;;;8.70;3.40;;;;;;;17.58;64.64;101021.84;5411848;26;19999;-45
2024/04/08 04:05:51;;;;;;;9.23;3.38;;;;;;;17.57;64.24;101028.88;5411284;26;19999;-48
2024/04/08 04:08:16;;;;;;;8.32;3.33;;;;;;;17.52;64.29;101027.19;5412103;26;20076;-45
2024/04/08 04:10:41;;;;;;;9.93;3.47;;;;;;;17.38;64.59;101030.00;5412270;26;20430;-50
2024/04/08 04:13:07;;;;;;;8.77;3.72;;;;;;;17.35;65.03;101037.94;5412572;26;20008;-47
2024/04/08 04:15:32;;;;;;;9.23;3.70;;;;;;;17.31;65.16;101044.16;5411194;26;20011;-46
2024/04/08 04:18:00;;;;;;;7.82;4.10;;;;;;;17.28;65.81;101047.69;5415495;26;20016;-46
2024/04/08 04:20:27;;;;;;;8.60;4.40;;;;;;;17.32;66.37;101048.53;5416012;26;20004;-44
2024/04/08 04:22:52;;;;;;;8.90;4.13;;;;;;;17.36;66.42;101040.56;5416026;26;20018;-47
2024/04/08 04:25:17;;;;;;;9.38;4.35;;;;;;;17.40;66.77;101046.66;5415695;26;20365;-47
2024/04/08 04:27:43;;;;;;;9.68;5.15;;;;;;;17.48;66.81;101052.72;5415797;26;20014;-45
2024/04/08 04:30:08;;;;;;;10.75;5.05;;;;;;;17.51;67.10;101055.31;5415798;26;20471;-48
2024/04/08 04:32:34;;;;;;;17.90;5.78;;;;;;;17.54;67.31;101068.47;5413368;26;20404;-48
2024/04/08 04:34:59;;;;;;;12.82;5.78;;;;;;;17.58;67.62;101078.06;5415398;26;20011;-46
2024/04/08 04:37:24;;;;;;;11.18;5.15;;;;;;;17.63;67.80;101085.94;5416023;26;20413;-45
2024/04/08 04:39:50;;;;;;;12.68;5.53;;;;;;;17.62;68.08;101092.13;5415505;26;20031;-44
2024/04/08 04:42:17;;;;;;;11.27;5.72;;;;;;;17.65;68.45;101085.06;5415179;26;20003;-48
2024/04/08 04:44:42;;;;;;;11.63;5.75;;;;;;;17.74;67.92;101082.31;5414542;26;20344;-47
2024/04/08 04:47:07;;;;;;;14.18;5.90;;;;;;;17.77;67.81;101081.38;5414744;26;20007;-48
2024/04/08 04:49:33;;;;;;;10.48;5.95;;;;;;;17.76;67.83;101082.28;5414605;26;20349;-46
2024/04/08 04:51:59;;;;;;;11.75;6.38;;;;;;;17.79;67.81;101093.69;5415130;26;20073;-51
2024/04/08 04:54:24;;;;;;;12.13;6.78;;;;;;;17.76;68.03;101098.09;5415680;26;20007;-44
2024/04/08 04:56:50;;;;;;;11.55;6.63;;;;;;;17.78;68.52;101107.75;5414911;26;20005;-44
2024/04/08 04:59:15;;;;;;;14.05;7.63;;;;;;;17.69;68.92;101104.34;5415375;26;20012;-49
2024/04/08 05:01:40;;;;;;;14.30;7.88;;;;;;;17.72;68.79;101107.81;5415078;26;20015;-45
2024/04/08 05:04:06;;;;;;;11.60;7.72;;;;;;;17.80;68.57;101115.66;5414912;26;20347;-44
2024/04/08 05:06:31;;;;;;;15.07;8.23;;;;;;;17.78;68.63;101110.38;5413595;26;20346;-46
2024/04/08 05:08:58;;;;;;;14.57;8.02;;;;;;;17.72;68.82;101109.59;5414809;26;20010;-46
2024/04/08 05:11:23;;;;;;;14.52;8.52;;;;;;;17.74;68.77;101113.09;5415394;26;20000;-46
2024/04/08 05:13:49;;;;;;;15.57;8.38;;;;;;;17.71;69.10;101107.84;5415530;26;20457;-45
2024/04/08 05:16:14;;;;;;;14.07;8.05;;;;;;;17.69;68.80;101118.38;5414161;26;20014;-48
2024/04/08 05:18:40;;;;;;;13.20;7.63;;;;;;;17.70;68.71;101112.22;5414070;26;20015;-48
2024/04/08 05:21:05;;;;;;;16.10;8.48;;;;;;;17.66;68.98;101114.94;5414533;26;20003;-43
2024/04/08 05:23:31;;;;;;;13.18;7.97;;;;;;;17.64;69.11;101120.22;5414577;26;20084;-46
2024/04/08 05:25:57;;;;;;;15.48;7.97;;;;;;;17.68;69.00;101107.88;5413898;26;20481;-50
2024/04/08 05:28:22;;;;;;;14.10;8.57;;;;;;;17.64;69.41;101116.69;5413802;26;20008;-48
2024/04/08 05:30:48;;;;;;;13.32;8.55;;;;;;;17.60;69.43;101094.78;5414006;26;20064;-44
2024/04/08 05:33:14;;;;;;;16.00;9.15;;;;;;;17.61;69.68;101093.91;5414551;26;20003;-47
2024/04/08 05:35:41;;;;;;;17.13;8.93;;;;;;;17.53;69.77;101082.53;5414002;26;20118;-44
2024/04/08 05:38:09;;;;;;;14.35;9.10;;;;;;;17.59;69.70;101097.41;5414601;26;20353;-48
2024/04/08 05:40:35;;;;;;;14.10;9.57;;;;;;;17.62;69.96;101095.66;5411872;26;20000;-46
2024/04/08 05:43:01;;;;;;;17.20;9.40;;;;;;;17.63;70.87;101101.78;5414169;26;20031;-47
2024/04/08 05:45:26;;;;;;;16.13;9.18;;;;;;;17.77;71.14;101107.75;5414979;26;20011;-48
2024/04/08 05:47:54;;;;;;;15.75;9.38;;;;;;;17.83;71.18;101105.91;5414335;26;20015;-46
2024/04/08 05:50:20;;;;;;;16.77;10.10;;;;;;;17.90;71.00;101114.63;5414381;26;20046;-52
2024/04/08 05:52:46;;;;;;;15.70;10.13;;;;;;;18.00;70.92;101112.72;5413742;26;20010;-47
2024/04/08 05:55:11;;;;;;;16.45;9.73;;;;;;;18.12;70.78;101121.34;5413709;26;19999;-44
2024/04/08 05:57:36;;;;;;;15.25;9.88;;;;;;;18.28;70.90;101121.16;5413238;26;20003;-46
2024/04/08 06:00:02;;;;;;;15.57;10.18;;;;;;;17.63;72.92;101114.94;5414592;26;20012;-45
2024/04/08 06:02:27;;;;;;;15.32;9.27;;;;;;;18.35;70.64;101118.41;5413911;26;20376;-49
2024/04/08 06:04:53;;;;;;;18.88;10.75;;;;;;;18.34;69.65;101116.66;5414698;26;20760;-47
2024/04/08 06:07:19;;;;;;;15.80;10.13;;;;;;;18.59;68.77;101117.22;5414682;26;20000;-45
2024/04/08 06:09:44;;;;;;;13.82;9.80;;;;;;;18.73;68.10;101109.91;5414245;26;20022;-50
2024/04/08 06:12:10;;;;;;;15.60;9.63;;;;;;;18.52;67.26;101104.97;5412946;26;20084;-45
2024/04/08 06:14:35;;;;;;;19.08;10.13;;;;;;;18.66;68.05;101103.00;5413656;26;20073;-46
2024/04/08 06:17:00;;;;;;;16.50;10.20;;;;;;;18.58;67.84;101110.19;5414083;26;20492;-48
2024/04/08 06:19:26;;;;;;;15.80;10.60;;;;;;;18.46;67.95;101120.88;5413778;26;20003;-46
2024/04/08 06:21:52;;;;;;;15.07;10.02;;;;;;;18.71;68.21;101124.94;5413579;26;20018;-45
2024/04/08 06:24:17;;;;;;;14.52;10.20;;;;;;;18.32;69.17;101123.72;5413679;26;19995;-50
2024/04/08 06:26:42;;;;;;;13.95;9.82;;;;;;;18.52;68.35;101118.16;5414142;26;20000;-45
2024/04/08 06:29:07;;;;;;;16.83;10.43;;;;;;;18.68;67.98;101118.81;5414869;26;20003;-44
2024/04/08 06:31:33;;;;;;;17.08;9.82;;;;;;;18.89;67.22;101118.47;5413807;26;20006;-50
2024/04/08 06:33:58;;;;;;;15.82;10.00;;;;;;;18.47;67.56;101126.16;5413444;26;19995;-46
2024/04/08 06:36:24;;;;;;;16.08;9.98;;;;;;;18.82;67.28;101117.69;5413699;26;20315;-47
2024/04/08 06:38:49;;;;;;;14.50;9.07;;;;;;;19.26;65.16;101114.28;5413027;26;20003;-50
2024/04/08 06:41:18;;;;;;;14.13;9.68;;;;;;;19.11;65.56;101106.63;5412490;26;20007;-44
2024/04/08 06:43:43;;;;;;;13.57;9.18;;;;;;;18.94;65.50;101098.13;5413415;26;20014;-48
2024/04/08 06:46:09;;;;;;;17.80;9.90;;;;;;;19.13;65.98;101093.38;5413621;26;20003;-45
2024/04/08 06:48:36;;;;;;;16.25;9.55;;;;;;;19.24;65.62;101096.69;5413807;26;20003;-44
2024/04/08 06:51:01;;;;;;;14.43;9.20;;;;;;;19.20;65.89;101095.03;5413606;26;20004;-45
2024/04/08 06:53:26;;;;;;;18.48;9.48;;;;;;;19.47;63.99;101091.88;5412577;26;20504;-46
2024/04/08 06:55:52;;;;;;;13.00;8.90;;;;;;;19.63;64.04;101095.09;5412390;26;20003;-49
2024/04/08 06:58:19;;;;;;;14.50;9.13;;;;;;;19.06;65.30;101095.28;5412857;26;20007;-43
2024/04/08 07:00:48;;;;;;;15.45;8.93;;;;;;;19.60;64.54;101092.50;5412150;26;20040;-48
2024/04/08 07:03:13;;;;;;;16.33;9.45;;;;;;;19.48;63.46;101104.19;5412930;26;19995;-49
2024/04/08 07:05:43;;;;;;;13.82;9.40;;;;;;;19.43;63.79;101104.25;5412335;26;19999;-46
2024/04/08 07:08:09;;;;;;;15.25;9.45;;;;;;;19.57;63.74;101111.09;5412079;26;20011;-49
2024/04/08 07:10:35;;;;;;;14.32;8.77;;;;;;;19.55;63.92;101121.69;5412815;26;19999;-48
2024/04/08 07:13:01;;;;;;;14.18;9.35;;;;;;;19.34;64.34;101114.13;5414163;26;20507;-49
2024/04/08 07:15:26;;;;;;;14.18;8.90;;;;;;;19.46;64.38;101108.63;5412929;26;20003;-46
2024/04/08 07:17:52;;;;;;;16.15;9.10;;;;;;;19.40;64.40;101111.38;5412417;26;20485;-47
2024/04/08 07:20:17;;;;;;;16.05;8.63;;;;;;;19.13;65.98;101114.53;5413161;26;20485;-49
2024/04/08 07:22:42;;;;;;;12.75;8.85;;;;;;;19.82;64.04;101113.19;5412079;26;20082;-45
2024/04/08 07:25:08;;;;;;;12.75;8.30;;;;;;;20.20;62.42;101115.00;5412301;26;20000;-46
2024/04/08 07:27:35;;;;;;;13.20;8.38;;;;;;;20.44;60.73;101108.31;5411538;26;20003;-49
2024/04/08 07:30:01;;;;;;;13.75;8.20;;;;;;;20.77;59.40;101105.78;5412093;26;20018;-45
2024/04/08 07:32:28;;;;;;;13.50;7.15;;;;;;;20.81;57.65;101102.13;5412500;26;20003;-46
2024/04/08 07:34:54;;;;;;;11.25;7.55;;;;;;;20.15;59.31;101105.44;5412311;26;20003;-50
2024/04/08 07:37:19;;;;;;;12.40;7.65;;;;;;;19.80;61.92;101101.78;5412209;26;20039;-48
2024/04/08 07:39:44;;;;;;;10.50;7.32;;;;;;;20.31;60.99;101083.00;5411831;26;20004;-46
2024/04/08 07:42:10;;;;;;;10.75;7.55;;;;;;;20.77;60.54;101076.63;5412058;26;20530;-48
2024/04/08 07:44:35;;;;;;;11.00;6.22;;;;;;;21.49;57.11;101068.50;5411164;26;20004;-45
2024/04/08 07:47:00;;;;;;;13.77;6.57;;;;;;;21.75;54.65;101060.66;5411532;26;20000;-45
2024/04/08 07:49:26;;;;;;;10.75;6.18;;;;;;;21.72;54.04;101060.75;5411960;26;20015;-47
2024/04/08 07:51:51;;;;;;;14.65;6.45;;;;;;;20.67;56.47;101052.16;5411080;26;19999;-46
2024/04/08 07:54:16;;;;;;;10.75;6.20;;;;;;;21.10;57.06;101049.25;5411793;26;20011;-49
2024/04/08 07:56:42;;;;;;;9.60;6.10;;;;;;;21.54;54.39;101029.44;5410789;26;20000;-45
2024/04/08 07:59:07;;;;;;;14.65;5.93;;;;;;;21.66;53.87;101014.94;5412140;26;20349;-50
2024/04/08 08:01:32;;;;;;;10.77;5.60;;;;;;;21.53;54.20;101016.25;5411274;26;19996;-45
2024/04/08 08:03:58;;;;;;;11.68;6.00;;;;;;;20.86;55.31;101021.59;5412144;26;19999;-45
2024/04/08 08:06:23;;;;;;;9.60;5.57;;;;;;;21.08;55.41;101021.91;5411738;26;20015;-51
2024/04/08 08:08:48;;;;;;;8.88;5.63;;;;;;;21.35;55.51;101025.59;5411476;26;20457;-47
2024/04/08 08:11:14;;;;;;;9.18;5.50;;;;;;;21.58;54.18;101025.81;5411851;26;20007;-47
2024/04/08 08:13:39;;;;;;;8.98;5.07;;;;;;;21.77;51.19;101028.78;5411691;26;20434;-49
2024/04/08 08:16:05;;;;;;;10.98;4.70;;;;;;;22.21;49.99;101035.38;5412236;26;20015;-47
2024/04/08 08:18:31;;;;;;;9.25;4.65;;;;;;;22.12;49.94;101044.53;5413035;26;20000;-46
2024/04/08 08:20:58;;;;;;;8.07;4.82;;;;;;;22.25;49.67;101043.22;5413622;26;20000;-48
2024/04/08 08:23:23;;;;;;;7.55;4.95;;;;;;;22.22;49.80;101045.97;5412794;26;20010;-45
2024/04/08 08:25:49;;;;;;;7.50;4.72;;;;;;;22.26;49.16;101044.09;5411719;26;20007;-45
2024/04/08 08:28:15;;;;;;;8.68;4.50;;;;;;;21.71;50.38;101044.91;5412793;26;20018;-49
2024/04/08 08:30:40;;;;;;;10.52;4.75;;;;;;;21.85;50.63;101059.47;5410504;26;20338;-48
2024/04/08 08:33:06;;;;;;;8.48;4.80;;;;;;;21.91;50.93;101044.28;5412502;26;20076;-44
2024/04/08 08:35:31;;;;;;;10.00;5.30;;;;;;;21.49;51.92;101035.81;5411626;26;19999;-47
2024/04/08 08:37:58;;;;;;;11.55;5.47;;;;;;;22.29;49.72;101033.34;5411649;26;20003;-44
2024/04/08 08:40:24;;;;;;;8.73;5.75;;;;;;;21.83;50.91;101041.88;5411843;26;20011;-45
2024/04/08 08:42:51;;;;;;;9.18;5.90;;;;;;;21.49;51.61;101034.03;5411569;26;19999;-45
2024/04/08 08:45:16;;;;;;;9.00;5.25;;;;;;;22.08;51.24;101034.06;5411159;26;20028;-48
2024/04/08 08:47:42;;;;;;;11.15;6.20;;;;;;;22.12;49.83;101031.25;5410670;26;20015;-45
2024/04/08 08:50:09;;;;;;;9.18;5.60;;;;;;;22.40;48.66;101022.38;5411213;26;19995;-46
2024/04/08 08:52:34;;;;;;;10.27;6.07;;;;;;;22.53;48.31;101024.56;5411147;26;19996;-46
2024/04/08 08:55:00;;;;;;;8.85;5.60;;;;;;;22.56;48.25;101020.97;5411210;26;20003;-43
2024/04/08 08:57:28;;;;;;;10.48;6.15;;;;;;;22.74;48.08;101023.03;5411085;26;20010;-46
2024/04/08 08:59:54;;;;;;;9.35;5.65;;;;;;;22.33;49.11;101021.69;5410503;26;20039;-48
2024/04/08 09:02:19;;;;;;;8.10;5.15;;;;;;;22.71;48.42;101014.25;5411110;26;20446;-48
2024/04/08 09:04:45;;;;;;;7.93;4.78;;;;;;;22.52;48.24;101011.34;5414073;26;20000;-46
2024/04/08 09:07:10;;;;;;;10.98;5.72;;;;;;;22.65;47.12;101010.88;5414878;26;20080;-46
2024/04/08 09:09:36;;;;;;;9.32;5.55;;;;;;;22.99;47.08;101002.59;5414596;26;20032;-48
2024/04/08 09:12:01;;;;;;;11.35;6.72;;;;;;;22.22;47.99;101006.13;5414404;26;20015;-47
2024/04/08 09:14:30;;;;;;;9.65;6.35;;;;;;;22.43;48.03;101001.91;5413864;26;20003;-45
2024/04/08 09:17:10;;;;;;;9.20;6.22;;;;;;;22.58;48.37;101000.50;5414129;26;20031;-45
2024/04/08 09:19:35;;;;;;;10.38;6.10;;;;;;;22.30;48.51;100999.69;5413916;26;20015;-45
2024/04/08 09:22:01;;;;;;;7.60;5.43;;;;;;;22.62;48.15;101004.81;5414434;26;20108;-46
2024/04/08 09:24:27;;;;;;;8.80;5.50;;;;;;;22.75;48.91;101015.94;5414346;26;19999;-44
2024/04/08 09:26:52;;;;;;;7.30;5.13;;;;;;;22.71;47.87;101015.13;5414177;26;20460;-45
2024/04/08 09:29:18;;;;;;;7.43;5.25;;;;;;;22.88;47.82;101025.19;5414097;26;20003;-46
2024/04/08 09:31:44;;;;;;;9.55;5.40;;;;;;;22.60;48.14;101018.16;5414331;26;20491;-47
2024/04/08 09:34:10;;;;;;;9.02;5.28;;;;;;;22.60;48.53;101009.31;5414106;26;20005;-47
2024/04/08 09:36:36;;;;;;;7.60;4.80;;;;;;;22.66;48.14;101007.31;5413252;26;19999;-45
2024/04/08 09:39:03;;;;;;;7.57;4.70;;;;;;;22.75;47.62;101011.44;5414474;26;20072;-45
2024/04/08 09:41:29;;;;;;;11.65;4.50;;;;;;;22.62;47.58;101004.81;5414168;26;20012;-45
2024/04/08 09:43:56;;;;;;;9.32;4.60;;;;;;;22.82;48.19;101006.78;5414158;26;19995;-46
2024/04/08 09:46:22;;;;;;;8.30;4.45;;;;;;;22.74;48.37;100999.09;5413883;26;20003;-49
2024/04/08 09:48:51;;;;;;;8.57;3.95;;;;;;;22.86;48.17;100987.19;5413736;26;20073;-46
2024/04/08 09:51:19;;;;;;;7.10;3.70;;;;;;;23.02;47.22;100993.66;5414343;26;20006;-45
2024/04/08 09:53:44;;;;;;;6.40;3.17;;;;;;;22.74;46.00;101004.44;5413962;26;19999;-47
2024/04/08 09:56:17;;;;;;;6.07;3.67;;;;;;;22.77;45.89;101001.66;5414107;26;19999;-47
2024/04/08 09:59:02;;;;;;;5.78;3.10;;;;;;;22.84;45.29;101004.97;5414102;26;20043;-45
2024/04/08 10:01:28;;;;;;;5.07;2.80;;;;;;;22.81;45.34;101007.75;5413176;26;19999;-49
2024/04/08 10:03:59;;;;;;;5.82;2.70;;;;;;;22.82;45.74;101005.00;5413995;26;19999;-44
2024/04/08 10:06:25;;;;;;;5.32;2.60;;;;;;;22.93;45.79;101009.97;5413461;26;20474;-47
2024/04/08 10:08:50;;;;;;;4.93;2.60;;;;;;;22.65;46.84;101010.00;5413570;26;20090;-50
2024/04/08 10:11:16;;;;;;;7.00;2.58;;;;;;;22.74;46.39;101001.78;5414036;26;20334;-53
2024/04/08 10:13:48;;;;;;;6.15;2.28;;;;;;;22.92;46.39;101003.78;5413708;26;19999;-46
2024/04/08 10:16:16;;;;;;;3.92;2.10;;;;;;;23.24;45.36;101013.22;5413575;26;19999;-44
2024/04/08 10:18:51;;;;;;;3.63;2.05;;;;;;;23.44;44.31;101009.84;5413582;26;20000;-48
2024/04/08 10:21:18;;;;;;;5.53;2.40;;;;;;;23.30;44.07;100999.69;5413684;26;19995;-47
2024/04/08 10:23:44;;;;;;;5.20;2.00;;;;;;;23.42;44.26;101001.06;5413652;26;20014;-46
2024/04/08 10:26:10;;;;;;;4.30;2.10;;;;;;;23.58;44.83;100993.41;5413347;26;20000;-49
2024/04/08 10:28:39;;;;;;;3.53;1.83;;;;;;;23.69;43.16;100993.84;5413583;26;20402;-47
2024/04/08 10:31:05;;;;;;;4.05;1.90;;;;;;;23.32;43.87;100999.66;5413727;26;20081;-49
2024/04/08 10:33:30;;;;;;;5.47;1.73;;;;;;;23.08;44.32;100988.13;5413857;26;20008;-48
2024/04/08 10:35:55;;;;;;;3.90;1.73;;;;;;;22.88;44.62;100985.31;5413266;26;20022;-46
2024/04/08 10:38:21;;;;;;;2.88;1.60;;;;;;;23.00;44.63;100987.53;5413605;26;20468;-46
2024/04/08 10:40:46;;;;;;;5.35;1.80;;;;;;;23.34;43.34;100993.38;5412633;26;20022;-47
2024/04/08 10:43:12;;;;;;;3.55;1.70;;;;;;;23.29;44.09;100983.81;5413798;26;20007;-46
2024/04/08 10:45:38;;;;;;;5.68;1.70;;;;;;;22.74;45.44;100985.81;5412902;26;20007;-46
2024/04/08 10:48:10;;;;;;;6.57;1.95;;;;;;;22.31;46.39;100978.41;5413202;26;20334;-44
2024/04/08 10:50:36;;;;;;;4.97;2.15;;;;;;;21.94;47.15;100965.44;5413718;26;20007;-46
2024/04/08 10:53:02;;;;;;;6.30;1.80;;;;;;;21.97;47.74;100961.81;5414491;26;19999;-45
2024/04/08 10:55:27;;;;;;;4.63;1.92;;;;;;;22.89;46.08;100957.81;5413365;26;20467;-48
2024/04/08 10:57:53;;;;;;;5.72;1.80;;;;;;;23.38;44.68;100955.06;5414068;26;20003;-44
2024/04/08 11:00:18;;;;;;;5.15;1.80;;;;;;;23.71;43.70;100944.94;5414378;26;20486;-44
2024/04/08 11:02:43;;;;;;;4.03;1.90;;;;;;;23.86;43.24;100944.31;5414050;26;20035;-45
2024/04/08 11:05:12;;;;;;;4.07;1.85;;;;;;;23.87;43.76;100947.84;5413919;26;20010;-45
2024/04/08 11:07:38;;;;;;;3.53;1.95;;;;;;;23.90;43.38;100938.88;5412760;26;20007;-48
2024/04/08 11:10:08;;;;;;;3.28;1.90;;;;;;;23.80;43.62;100943.69;5413640;26;20029;-47
2024/04/08 11:12:33;;;;;;;3.55;1.80;;;;;;;;;;5413028;26;20032;-46
2024/04/08 11:15:03;;;;;;;4.95;1.92;;;;;;;24.00;43.65;100933.13;5412793;26;19999;-48